createdAt,value
2023-04-28T00:01:13.173Z,93.69
2023-04-28T00:03:39.829Z,95.00
2023-04-28T00:06:06.520Z,95.87
2023-04-28T00:08:33.130Z,96.22
2023-04-28T00:11:00.279Z,95.80
2023-04-28T00:13:26.900Z,95.28
2023-04-28T00:15:54.168Z,95.43
2023-04-28T00:18:21.380Z,94.29
2023-04-28T00:20:48.106Z,93.81
2023-04-28T00:23:14.490Z,94.86
2023-04-28T00:25:40.851Z,95.28
2023-04-28T00:28:07.290Z,95.48
2023-04-28T00:30:33.711Z,95.35
2023-04-28T00:33:00.149Z,95.03
2023-04-28T00:35:26.646Z,96.02
2023-04-28T00:37:53.067Z,96.04
2023-04-28T00:40:19.496Z,96.51
2023-04-28T00:42:46.104Z,96.31
2023-04-28T00:45:12.466Z,96.72
2023-04-28T00:47:38.944Z,98.59
2023-04-28T00:50:06.589Z,100.00
2023-04-28T00:52:33.094Z,100.00
2023-04-28T00:54:59.705Z,100.00
2023-04-28T00:57:26.237Z,100.00
2023-04-28T00:59:53.040Z,100.00
2023-04-28T01:02:19.993Z,100.00
2023-04-28T01:04:47.137Z,100.00
2023-04-28T01:07:13.613Z,100.00
2023-04-28T01:09:39.989Z,100.00
2023-04-28T01:12:06.744Z,100.00
2023-04-28T01:14:33.985Z,100.00
2023-04-28T01:17:00.695Z,99.96
2023-04-28T01:19:27.906Z,98.73
2023-04-28T01:21:54.472Z,98.22
2023-04-28T01:24:21.034Z,97.74
2023-04-28T01:26:47.590Z,97.27
2023-04-28T01:29:14.144Z,96.53
2023-04-28T01:31:41.114Z,95.80
2023-04-28T01:34:07.900Z,94.74
2023-04-28T01:36:37.242Z,94.05
2023-04-28T01:39:04.649Z,94.12
2023-04-28T01:41:31.380Z,93.85
2023-04-28T01:43:57.994Z,93.73
2023-04-28T01:46:24.442Z,93.22
2023-04-28T01:48:50.838Z,93.87
2023-04-28T01:51:17.341Z,93.49
2023-04-28T01:53:43.755Z,92.96
2023-04-28T01:56:10.248Z,92.24
2023-04-28T01:58:36.691Z,91.88
2023-04-28T02:01:03.149Z,91.69
2023-04-28T02:03:29.672Z,91.56
2023-04-28T02:05:56.472Z,91.63
2023-04-28T02:08:22.907Z,91.83
2023-04-28T02:10:49.346Z,91.20
2023-04-28T02:13:17.180Z,91.34
2023-04-28T02:15:44.249Z,90.99
2023-04-28T02:18:11.250Z,90.59
2023-04-28T02:20:37.727Z,90.32
2023-04-28T02:23:04.197Z,89.66
2023-04-28T02:25:30.619Z,89.01
2023-04-28T02:27:57.420Z,89.23
2023-04-28T02:30:23.810Z,89.29
2023-04-28T02:32:50.268Z,89.13
2023-04-28T02:35:16.753Z,88.97
2023-04-28T02:37:43.183Z,89.39
2023-04-28T02:40:09.910Z,89.53
2023-04-28T02:42:36.318Z,89.85
2023-04-28T02:45:02.740Z,89.67
2023-04-28T02:47:29.228Z,90.16
2023-04-28T02:49:55.797Z,90.55
2023-04-28T02:52:22.218Z,90.24
2023-04-28T02:54:49.251Z,90.71
2023-04-28T02:57:15.847Z,91.22
2023-04-28T02:59:42.475Z,91.86
2023-04-28T03:02:09.197Z,92.14
2023-04-28T03:04:35.849Z,92.97
2023-04-28T03:07:02.416Z,93.15
2023-04-28T03:09:28.826Z,93.42
2023-04-28T03:11:55.212Z,93.22
2023-04-28T03:14:21.601Z,93.11
2023-04-28T03:16:48.176Z,93.70
2023-04-28T03:19:14.666Z,94.18
2023-04-28T03:21:41.219Z,94.42
2023-04-28T03:24:07.872Z,94.80
2023-04-28T03:26:34.776Z,95.41
2023-04-28T03:29:01.216Z,95.14
2023-04-28T03:31:27.680Z,95.27
2023-04-28T03:33:54.087Z,94.95
2023-04-28T03:36:20.475Z,95.06
2023-04-28T03:38:47.039Z,95.04
2023-04-28T03:41:13.645Z,94.92
2023-04-28T03:43:40.011Z,95.54
2023-04-28T03:46:06.665Z,95.41
2023-04-28T03:48:33.155Z,95.27
2023-04-28T03:50:59.556Z,94.36
2023-04-28T03:53:25.962Z,94.81
2023-04-28T03:55:52.482Z,94.61
2023-04-28T03:58:18.929Z,94.30
2023-04-28T04:00:45.454Z,94.47
2023-04-28T04:03:12.144Z,95.09
2023-04-28T04:05:41.264Z,96.21
2023-04-28T04:08:07.843Z,96.75
2023-04-28T04:10:34.242Z,96.38
2023-04-28T04:13:00.660Z,96.50
2023-04-28T04:15:27.110Z,96.28
2023-04-28T04:17:53.572Z,96.96
2023-04-28T04:20:20.072Z,97.00
2023-04-28T04:22:46.475Z,97.23
2023-04-28T04:25:12.952Z,97.18
2023-04-28T04:27:39.466Z,97.78
2023-04-28T04:30:07.186Z,98.40
2023-04-28T04:32:33.639Z,99.51
2023-04-28T04:35:00.241Z,99.64
2023-04-28T04:37:27.012Z,100.00
2023-04-28T04:39:53.391Z,100.00
2023-04-28T04:42:25.479Z,100.00
2023-04-28T04:44:52.330Z,100.00
2023-04-28T04:47:19.122Z,100.00
2023-04-28T04:49:45.656Z,100.00
2023-04-28T04:52:12.051Z,100.00
2023-04-28T04:54:38.416Z,100.00
2023-04-28T04:57:05.126Z,100.00
2023-04-28T04:59:31.677Z,100.00
2023-04-28T05:01:58.141Z,100.00
2023-04-28T05:04:24.668Z,100.00
2023-04-28T05:06:51.541Z,100.00
2023-04-28T05:09:18.025Z,100.00
2023-04-28T05:11:45.704Z,100.00
2023-04-28T05:14:12.101Z,100.00
2023-04-28T05:16:39.311Z,100.00
2023-04-28T05:19:05.981Z,100.00
2023-04-28T05:21:32.667Z,100.00
2023-04-28T05:23:59.072Z,100.00
2023-04-28T05:26:26.076Z,100.00
2023-04-28T05:28:52.579Z,100.00
2023-04-28T05:31:19.090Z,100.00
2023-04-28T05:33:45.948Z,100.00
2023-04-28T05:36:13.016Z,100.00
2023-04-28T05:38:39.530Z,100.00
2023-04-28T05:41:06.142Z,100.00
2023-04-28T05:43:32.544Z,100.00
2023-04-28T05:46:00.299Z,100.00
2023-04-28T05:48:27.055Z,100.00
2023-04-28T05:50:53.616Z,100.00
2023-04-28T05:53:20.336Z,100.00
2023-04-28T05:55:46.913Z,100.00
2023-04-28T05:58:13.346Z,100.00
2023-04-28T06:00:39.758Z,100.00
2023-04-28T06:03:06.903Z,100.00
2023-04-28T06:05:33.710Z,100.00
2023-04-28T06:08:00.247Z,100.00
2023-04-28T06:10:26.745Z,100.00
2023-04-28T06:12:53.180Z,100.00
2023-04-28T06:15:19.597Z,100.00
2023-04-28T06:17:46.226Z,100.00
2023-04-28T06:20:13.903Z,100.00
2023-04-28T06:22:41.357Z,100.00
2023-04-28T06:25:08.349Z,100.00
2023-04-28T06:27:34.818Z,100.00
2023-04-28T06:30:01.280Z,100.00
2023-04-28T06:32:27.716Z,100.00
2023-04-28T06:34:54.124Z,100.00
2023-04-28T06:37:20.742Z,100.00
2023-04-28T06:39:47.774Z,100.00
2023-04-28T06:42:18.214Z,100.00
2023-04-28T06:44:45.526Z,100.00
2023-04-28T06:47:12.044Z,100.00
2023-04-28T06:49:38.464Z,100.00
2023-04-28T06:52:04.915Z,100.00
2023-04-28T06:54:31.908Z,100.00
2023-04-28T06:56:58.357Z,100.00
2023-04-28T06:59:24.736Z,100.00
2023-04-28T07:01:51.194Z,100.00
2023-04-28T07:04:18.481Z,100.00
2023-04-28T07:06:45.306Z,100.00
2023-04-28T07:09:11.769Z,100.00
2023-04-28T07:11:38.194Z,100.00
2023-04-28T07:14:04.624Z,100.00
2023-04-28T07:16:31.103Z,100.00
2023-04-28T07:18:57.575Z,100.00
2023-04-28T07:21:23.969Z,100.00
2023-04-28T07:23:50.416Z,100.00
2023-04-28T07:26:16.932Z,98.61
2023-04-28T07:28:44.384Z,97.53
2023-04-28T07:31:11.330Z,97.95
2023-04-28T07:33:37.738Z,98.19
2023-04-28T07:36:04.740Z,97.81
2023-04-28T07:38:31.320Z,97.29
2023-04-28T07:40:57.846Z,96.49
2023-04-28T07:43:24.427Z,95.08
2023-04-28T07:45:50.955Z,95.27
2023-04-28T07:48:17.595Z,92.98
2023-04-28T07:50:44.167Z,93.11
2023-04-28T07:53:10.625Z,91.23
2023-04-28T07:55:37.341Z,91.30
2023-04-28T07:58:03.780Z,91.49
2023-04-28T08:00:30.398Z,90.50
2023-04-28T08:02:57.761Z,89.72
2023-04-28T08:05:24.672Z,89.38
2023-04-28T08:07:51.373Z,89.04
2023-04-28T08:10:17.927Z,89.27
2023-04-28T08:12:45.377Z,88.31
2023-04-28T08:15:12.166Z,87.84
2023-04-28T08:17:39.098Z,87.44
2023-04-28T08:20:06.788Z,85.75
2023-04-28T08:22:33.237Z,85.87
2023-04-28T08:24:59.694Z,86.31
2023-04-28T08:27:26.210Z,84.22
2023-04-28T08:29:52.902Z,82.01
2023-04-28T08:32:19.498Z,82.24
2023-04-28T08:34:45.911Z,81.61
2023-04-28T08:37:12.391Z,80.59
2023-04-28T08:39:38.798Z,81.82
2023-04-28T08:42:05.621Z,80.86
2023-04-28T08:44:39.839Z,78.90
2023-04-28T08:47:14.134Z,79.32
2023-04-28T08:49:41.401Z,78.90
2023-04-28T08:52:16.733Z,78.33
2023-04-28T08:54:44.227Z,77.49
2023-04-28T08:57:11.326Z,75.76
2023-04-28T08:59:40.055Z,72.77
2023-04-28T09:02:08.711Z,68.95
2023-04-28T09:04:35.570Z,74.46
2023-04-28T09:07:02.300Z,73.33
2023-04-28T09:09:33.981Z,72.83
2023-04-28T09:12:04.103Z,69.62
2023-04-28T09:14:35.368Z,70.75
2023-04-28T09:17:03.194Z,69.15
2023-04-28T09:19:37.641Z,72.99
2023-04-28T09:22:21.778Z,70.62
2023-04-28T09:24:53.454Z,70.53
2023-04-28T09:27:27.971Z,67.15
2023-04-28T09:29:54.749Z,68.42
2023-04-28T09:32:22.816Z,67.56
2023-04-28T09:34:51.597Z,65.12
2023-04-28T09:37:20.291Z,66.89
2023-04-28T09:39:51.394Z,65.44
2023-04-28T09:42:34.076Z,59.21
2023-04-28T09:45:14.164Z,60.24
2023-04-28T09:47:42.809Z,62.65
2023-04-28T09:50:14.244Z,58.41
2023-04-28T09:52:59.637Z,49.91
2023-04-28T09:55:28.278Z,56.63
2023-04-28T09:57:55.166Z,54.47
2023-04-28T10:00:23.039Z,56.93
2023-04-28T10:02:50.529Z,54.20
2023-04-28T10:05:17.285Z,53.31
2023-04-28T10:07:44.445Z,52.22
2023-04-28T10:10:14.656Z,50.63
2023-04-28T10:12:41.894Z,45.71
2023-04-28T10:15:10.243Z,48.56
2023-04-28T10:17:37.044Z,48.19
2023-04-28T10:20:05.087Z,49.72
2023-04-28T10:22:52.854Z,45.79
2023-04-28T10:25:29.906Z,44.33
2023-04-28T10:27:58.543Z,47.39
2023-04-28T10:30:29.228Z,49.66
2023-04-28T10:33:26.823Z,44.25
2023-04-28T10:35:53.740Z,46.59
2023-04-28T10:38:21.907Z,47.83
2023-04-28T10:40:53.916Z,47.15
2023-04-28T10:43:29.636Z,49.19
2023-04-28T10:46:02.086Z,49.34
2023-04-28T10:48:34.812Z,47.78
2023-04-28T10:51:04.402Z,45.95
2023-04-28T10:53:43.451Z,43.07
2023-04-28T10:56:15.438Z,45.26
2023-04-28T10:58:43.769Z,46.77
2023-04-28T11:01:22.436Z,48.17
2023-04-28T11:04:02.274Z,46.09
2023-04-28T11:06:36.350Z,46.88
2023-04-28T11:09:24.062Z,49.52
2023-04-28T11:12:03.636Z,44.92
2023-04-28T11:14:30.093Z,48.55
2023-04-28T11:17:04.888Z,46.78
2023-04-28T11:19:46.194Z,46.91
2023-04-28T11:22:20.477Z,46.46
2023-04-28T11:25:03.648Z,47.81
2023-04-28T11:27:32.280Z,47.72
2023-04-28T11:29:59.904Z,46.25
2023-04-28T11:32:28.773Z,46.99
2023-04-28T11:34:55.431Z,48.23
2023-04-28T11:37:22.863Z,49.97
2023-04-28T11:39:55.152Z,47.05
2023-04-28T11:42:21.598Z,46.60
2023-04-28T11:44:52.964Z,46.41
2023-04-28T11:47:30.507Z,47.09
2023-04-28T11:49:57.780Z,46.25
2023-04-28T11:52:24.462Z,48.01
2023-04-28T11:55:00.055Z,44.75
2023-04-28T11:57:26.934Z,46.18
2023-04-28T11:59:53.649Z,47.29
2023-04-28T12:02:30.251Z,48.21
2023-04-28T12:04:57.310Z,43.96
2023-04-28T12:07:24.555Z,48.24
2023-04-28T12:10:11.224Z,48.96
2023-04-28T12:12:49.773Z,47.65
2023-04-28T12:15:19.507Z,48.41
2023-04-28T12:17:47.061Z,47.19
2023-04-28T12:20:35.204Z,46.57
2023-04-28T12:23:03.100Z,45.63
2023-04-28T12:25:29.761Z,46.95
2023-04-28T12:27:59.441Z,47.01
2023-04-28T12:30:29.261Z,47.49
2023-04-28T12:32:56.395Z,48.42
2023-04-28T12:35:24.789Z,48.35
2023-04-28T12:37:52.972Z,48.05
2023-04-28T12:40:19.495Z,49.83
2023-04-28T12:42:46.032Z,49.34
2023-04-28T12:45:12.839Z,49.77
2023-04-28T12:47:39.730Z,49.64
2023-04-28T12:50:06.795Z,49.63
2023-04-28T12:52:34.652Z,50.13
2023-04-28T12:55:01.477Z,49.41
2023-04-28T12:57:28.891Z,49.57
2023-04-28T12:59:57.099Z,48.68
2023-04-28T13:02:24.175Z,49.51
2023-04-28T13:04:52.107Z,50.71
2023-04-28T13:07:19.113Z,50.16
2023-04-28T13:09:45.968Z,49.44
2023-04-28T13:12:13.610Z,49.50
2023-04-28T13:14:40.100Z,49.35
2023-04-28T13:17:06.598Z,49.49
2023-04-28T13:19:34.245Z,49.27
2023-04-28T13:22:01.584Z,48.81
2023-04-28T13:24:28.024Z,48.76
2023-04-28T13:26:55.567Z,48.41
2023-04-28T13:29:22.557Z,49.49
2023-04-28T13:31:49.046Z,49.89
2023-04-28T13:34:18.939Z,48.98
2023-04-28T13:36:45.807Z,49.53
2023-04-28T13:39:14.372Z,50.09
2023-04-28T13:41:40.997Z,50.64
2023-04-28T13:44:07.524Z,49.52
2023-04-28T13:46:34.004Z,50.78
2023-04-28T13:49:00.466Z,49.72
2023-04-28T13:51:28.646Z,49.46
2023-04-28T13:53:55.675Z,48.49
2023-04-28T13:56:22.126Z,48.13
2023-04-28T13:58:49.178Z,48.44
2023-04-28T14:01:15.741Z,48.57
2023-04-28T14:03:44.088Z,48.35
2023-04-28T14:06:11.501Z,48.90
2023-04-28T14:08:38.262Z,49.45
2023-04-28T14:11:05.835Z,50.18
2023-04-28T14:13:36.316Z,50.31
2023-04-28T14:16:03.159Z,49.67
2023-04-28T14:18:29.810Z,49.62
2023-04-28T14:20:56.552Z,49.27
2023-04-28T14:23:23.201Z,50.26
2023-04-28T14:25:50.369Z,51.22
2023-04-28T14:28:17.157Z,50.02
2023-04-28T14:30:44.054Z,50.11
2023-04-28T14:33:10.663Z,51.72
2023-04-28T14:35:37.519Z,52.14
2023-04-28T14:38:04.330Z,53.32
2023-04-28T14:40:31.325Z,53.35
2023-04-28T14:42:57.974Z,54.46
2023-04-28T14:45:24.581Z,52.92
2023-04-28T14:47:51.250Z,54.23
2023-04-28T14:50:18.511Z,55.10
2023-04-28T14:52:45.107Z,54.15
2023-04-28T14:55:11.808Z,53.02
2023-04-28T14:57:38.347Z,55.07
2023-04-28T15:00:07.245Z,52.79
2023-04-28T15:02:34.250Z,53.82
2023-04-28T15:05:00.957Z,54.04
2023-04-28T15:07:33.470Z,54.01
2023-04-28T15:10:00.639Z,52.59
2023-04-28T15:12:30.189Z,53.76
2023-04-28T15:14:57.005Z,54.78
2023-04-28T15:17:23.729Z,53.69
2023-04-28T15:19:50.157Z,54.73
2023-04-28T15:22:17.007Z,57.09
2023-04-28T15:24:46.762Z,56.02
2023-04-28T15:27:13.404Z,55.77
2023-04-28T15:29:40.053Z,55.75
2023-04-28T15:32:06.905Z,55.36
2023-04-28T15:34:33.813Z,54.93
2023-04-28T15:37:01.324Z,56.74
2023-04-28T15:39:28.617Z,56.61
2023-04-28T15:41:56.381Z,56.48
2023-04-28T15:44:23.076Z,57.47
2023-04-28T15:46:51.700Z,57.28
2023-04-28T15:49:18.167Z,57.69
2023-04-28T15:51:45.084Z,57.83
2023-04-28T15:54:11.694Z,57.98
2023-04-28T15:56:38.134Z,57.25
2023-04-28T15:59:04.746Z,57.61
2023-04-28T16:01:31.205Z,57.73
2023-04-28T16:03:58.162Z,58.25
2023-04-28T16:06:25.490Z,58.91
2023-04-28T16:08:52.044Z,58.62
2023-04-28T16:11:20.304Z,58.78
2023-04-28T16:13:46.802Z,58.10
2023-04-28T16:16:13.337Z,59.08
2023-04-28T16:18:39.814Z,59.74
2023-04-28T16:21:06.496Z,59.30
2023-04-28T16:23:33.245Z,59.25
2023-04-28T16:25:59.647Z,59.75
2023-04-28T16:28:26.980Z,59.38
2023-04-28T16:30:53.426Z,59.42
2023-04-28T16:33:19.821Z,59.44
2023-04-28T16:35:53.659Z,59.97
2023-04-28T16:38:20.605Z,59.01
2023-04-28T16:40:47.075Z,57.89
2023-04-28T16:43:13.534Z,58.36
2023-04-28T16:45:40.034Z,58.59
2023-04-28T16:48:07.049Z,58.91
2023-04-28T16:50:33.707Z,59.05
2023-04-28T16:53:00.122Z,59.33
2023-04-28T16:55:26.691Z,60.23
2023-04-28T16:57:53.086Z,61.18
2023-04-28T17:00:20.229Z,61.62
2023-04-28T17:02:46.939Z,61.90
2023-04-28T17:05:13.954Z,62.39
2023-04-28T17:07:40.687Z,62.88
2023-04-28T17:10:07.661Z,61.94
2023-04-28T17:12:34.144Z,62.30
2023-04-28T17:15:00.621Z,62.69
2023-04-28T17:17:27.204Z,62.35
2023-04-28T17:19:53.945Z,62.81
2023-04-28T17:22:20.360Z,63.53
2023-04-28T17:24:46.781Z,63.42
2023-04-28T17:27:14.632Z,63.85
2023-04-28T17:29:42.663Z,64.56
2023-04-28T17:32:09.215Z,64.06
2023-04-28T17:34:35.657Z,64.28
2023-04-28T17:37:02.096Z,64.66
2023-04-28T17:39:28.497Z,64.35
2023-04-28T17:41:57.562Z,64.75
2023-04-28T17:44:24.098Z,65.05
2023-04-28T17:46:50.577Z,64.87
2023-04-28T17:49:16.973Z,66.95
2023-04-28T17:51:43.399Z,67.43
2023-04-28T17:54:10.341Z,67.73
2023-04-28T17:56:38.348Z,68.44
2023-04-28T17:59:06.000Z,69.42
2023-04-28T18:01:34.830Z,69.28
2023-04-28T18:04:01.377Z,70.31
2023-04-28T18:06:29.992Z,71.86
2023-04-28T18:08:56.408Z,72.82
2023-04-28T18:11:23.306Z,73.44
2023-04-28T18:13:49.770Z,73.19
2023-04-28T18:16:16.262Z,73.59
2023-04-28T18:18:42.680Z,75.92
2023-04-28T18:21:09.567Z,77.61
2023-04-28T18:23:36.039Z,79.17
2023-04-28T18:26:02.907Z,81.70
2023-04-28T18:28:29.437Z,81.63
2023-04-28T18:30:55.867Z,82.51
2023-04-28T18:33:28.413Z,83.98
2023-04-28T18:35:59.781Z,84.53
2023-04-28T18:38:26.440Z,84.67
2023-04-28T18:40:52.866Z,84.70
2023-04-28T18:43:19.282Z,85.29
2023-04-28T18:45:45.796Z,85.31
2023-04-28T18:48:12.448Z,86.18
2023-04-28T18:50:39.108Z,86.63
2023-04-28T18:53:06.616Z,87.42
2023-04-28T18:55:33.563Z,87.78
2023-04-28T18:58:01.791Z,88.03
2023-04-28T19:00:28.335Z,89.19
2023-04-28T19:02:54.820Z,89.95
2023-04-28T19:05:21.461Z,89.76
2023-04-28T19:07:47.863Z,89.93
2023-04-28T19:10:14.274Z,90.03
2023-04-28T19:12:40.954Z,90.67
2023-04-28T19:15:07.810Z,91.22
2023-04-28T19:17:34.379Z,91.54
2023-04-28T19:20:00.873Z,91.68
2023-04-28T19:22:38.583Z,91.62
2023-04-28T19:25:07.269Z,91.08
2023-04-28T19:27:36.007Z,91.52
2023-04-28T19:30:04.135Z,91.30
2023-04-28T19:32:30.802Z,91.49
2023-04-28T19:34:57.341Z,91.63
2023-04-28T19:37:25.116Z,91.29
2023-04-28T19:39:51.857Z,91.61
2023-04-28T19:42:18.876Z,92.55
2023-04-28T19:44:46.545Z,93.28
2023-04-28T19:47:13.380Z,93.22
2023-04-28T19:49:42.084Z,93.58
2023-04-28T19:52:10.192Z,92.98
2023-04-28T19:54:38.655Z,93.07
2023-04-28T19:57:05.345Z,93.20
2023-04-28T19:59:31.985Z,94.16
2023-04-28T20:01:58.652Z,94.42
2023-04-28T20:04:26.008Z,94.53
2023-04-28T20:06:52.504Z,94.68
2023-04-28T20:09:19.045Z,94.60
2023-04-28T20:11:45.603Z,94.90
2023-04-28T20:14:12.015Z,94.95
2023-04-28T20:16:38.523Z,94.89
2023-04-28T20:19:04.937Z,94.78
2023-04-28T20:21:31.704Z,95.12
2023-04-28T20:23:58.257Z,95.18
2023-04-28T20:26:24.857Z,95.16
2023-04-28T20:28:51.320Z,96.08
2023-04-28T20:31:17.722Z,96.98
2023-04-28T20:33:44.194Z,97.16
2023-04-28T20:36:12.640Z,97.37
2023-04-28T20:38:39.058Z,97.30
2023-04-28T20:41:07.742Z,97.39
2023-04-28T20:43:34.314Z,97.67
2023-04-28T20:46:00.934Z,98.42
2023-04-28T20:48:29.133Z,99.33
2023-04-28T20:50:58.086Z,100.00
2023-04-28T20:53:24.523Z,100.00
2023-04-28T20:55:51.579Z,100.00
2023-04-28T20:58:18.063Z,100.00
2023-04-28T21:00:44.578Z,100.00
2023-04-28T21:03:15.741Z,100.00
2023-04-28T21:05:44.510Z,100.00
2023-04-28T21:08:11.398Z,100.00
2023-04-28T21:10:38.593Z,100.00
2023-04-28T21:13:05.384Z,100.00
2023-04-28T21:15:41.418Z,100.00
2023-04-28T21:18:07.990Z,100.00
2023-04-28T21:20:34.530Z,100.00
2023-04-28T21:23:01.052Z,100.00
2023-04-28T21:25:28.268Z,100.00
2023-04-28T21:27:55.273Z,100.00
2023-04-28T21:30:22.194Z,100.00
2023-04-28T21:32:48.743Z,100.00
2023-04-28T21:35:16.184Z,100.00
2023-04-28T21:37:42.735Z,100.00
2023-04-28T21:40:09.521Z,100.00
2023-04-28T21:42:36.232Z,100.00
2023-04-28T21:45:02.739Z,100.00
2023-04-28T21:47:29.797Z,100.00
2023-04-28T21:49:56.277Z,100.00
2023-04-28T21:52:22.685Z,100.00
2023-04-28T21:54:49.074Z,100.00
2023-04-28T21:57:15.822Z,100.00
2023-04-28T21:59:42.365Z,100.00
2023-04-28T22:02:09.074Z,100.00
2023-04-28T22:04:36.032Z,100.00
2023-04-28T22:07:02.643Z,100.00
2023-04-28T22:09:29.172Z,100.00
2023-04-28T22:11:55.719Z,100.00
2023-04-28T22:14:39.590Z,100.00
2023-04-28T22:17:07.460Z,100.00
2023-04-28T22:19:34.061Z,100.00
2023-04-28T22:22:00.528Z,100.00
2023-04-28T22:24:27.716Z,100.00
2023-04-28T22:26:54.816Z,100.00
2023-04-28T22:29:21.532Z,100.00
2023-04-28T22:31:48.044Z,100.00
2023-04-28T22:34:14.547Z,100.00
2023-04-28T22:36:42.053Z,100.00
2023-04-28T22:39:08.576Z,100.00
2023-04-28T22:41:34.956Z,100.00
2023-04-28T22:44:01.387Z,100.00
2023-04-28T22:46:28.614Z,100.00
2023-04-28T22:48:55.215Z,100.00
2023-04-28T22:51:21.787Z,100.00
2023-04-28T22:53:48.640Z,100.00
2023-04-28T22:56:15.695Z,100.00
2023-04-28T22:58:42.250Z,100.00
2023-04-28T23:01:09.201Z,100.00
2023-04-28T23:03:36.065Z,100.00
2023-04-28T23:06:02.631Z,100.00
2023-04-28T23:08:29.083Z,100.00
2023-04-28T23:10:58.923Z,100.00
2023-04-28T23:13:25.499Z,100.00
2023-04-28T23:15:52.038Z,100.00
2023-04-28T23:18:18.742Z,100.00
2023-04-28T23:20:48.687Z,100.00
2023-04-28T23:23:15.190Z,100.00
2023-04-28T23:25:42.898Z,100.00
2023-04-28T23:28:10.182Z,100.00
2023-04-28T23:30:36.657Z,100.00
2023-04-28T23:33:03.127Z,100.00
2023-04-28T23:35:29.575Z,100.00
2023-04-28T23:37:56.260Z,100.00
2023-04-28T23:40:22.663Z,100.00
2023-04-28T23:42:49.078Z,100.00
2023-04-28T23:45:15.882Z,100.00
2023-04-28T23:47:42.277Z,100.00
2023-04-28T23:50:09.782Z,100.00
2023-04-28T23:52:40.238Z,100.00
2023-04-28T23:55:12.873Z,100.00
2023-04-28T23:57:39.862Z,100.00
